sensor_id;sensor_type;location;lat;lon;timestamp;P1;durP1;ratioP1;P2;durP2;ratioP2
65871;SDS011;52653;50.080;21.992;2023-03-29T00:00:51;15.90;;;10.30;;
65871;SDS011;52653;50.080;21.992;2023-03-29T00:03:48;13.00;;;9.10;;
65871;SDS011;52653;50.080;21.992;2023-03-29T00:06:42;14.90;;;9.50;;
65871;SDS011;52653;50.080;21.992;2023-03-29T00:09:36;16.00;;;9.20;;
65871;SDS011;52653;50.080;21.992;2023-03-29T00:12:19;12.40;;;8.10;;
65871;SDS011;52653;50.080;21.992;2023-03-29T00:15:12;13.60;;;8.70;;
65871;SDS011;52653;50.080;21.992;2023-03-29T00:18:05;12.50;;;8.20;;
65871;SDS011;52653;50.080;21.992;2023-03-29T00:20:55;13.00;;;8.10;;
65871;SDS011;52653;50.080;21.992;2023-03-29T00:23:49;13.90;;;8.20;;
65871;SDS011;52653;50.080;21.992;2023-03-29T00:26:34;12.50;;;8.10;;
65871;SDS011;52653;50.080;21.992;2023-03-29T00:29:27;13.60;;;8.70;;
65871;SDS011;52653;50.080;21.992;2023-03-29T00:32:04;12.50;;;8.20;;
65871;SDS011;52653;50.080;21.992;2023-03-29T00:34:39;13.40;;;7.90;;
65871;SDS011;52653;50.080;21.992;2023-03-29T00:37:24;12.60;;;7.80;;
65871;SDS011;52653;50.080;21.992;2023-03-29T00:40:01;12.10;;;7.20;;
65871;SDS011;52653;50.080;21.992;2023-03-29T00:42:58;12.50;;;7.30;;
65871;SDS011;52653;50.080;21.992;2023-03-29T00:45:52;14.10;;;7.40;;
65871;SDS011;52653;50.080;21.992;2023-03-29T00:48:28;10.40;;;7.20;;
65871;SDS011;52653;50.080;21.992;2023-03-29T00:51:21;11.40;;;7.20;;
65871;SDS011;52653;50.080;21.992;2023-03-29T00:54:08;13.00;;;7.40;;
65871;SDS011;52653;50.080;21.992;2023-03-29T00:56:54;11.80;;;6.90;;
65871;SDS011;52653;50.080;21.992;2023-03-29T00:59:50;10.40;;;6.10;;
65871;SDS011;52653;50.080;21.992;2023-03-29T01:02:45;11.00;;;6.10;;
65871;SDS011;52653;50.080;21.992;2023-03-29T01:05:36;10.40;;;6.20;;
65871;SDS011;52653;50.080;21.992;2023-03-29T01:08:33;11.20;;;7.20;;
65871;SDS011;52653;50.080;21.992;2023-03-29T01:11:31;11.60;;;6.60;;
65871;SDS011;52653;50.080;21.992;2023-03-29T01:14:19;12.40;;;7.10;;
65871;SDS011;52653;50.080;21.992;2023-03-29T01:17:01;12.20;;;7.30;;
65871;SDS011;52653;50.080;21.992;2023-03-29T01:19:51;10.40;;;6.30;;
65871;SDS011;52653;50.080;21.992;2023-03-29T01:22:56;12.30;;;7.00;;
65871;SDS011;52653;50.080;21.992;2023-03-29T01:26:06;10.90;;;6.50;;
65871;SDS011;52653;50.080;21.992;2023-03-29T01:28:52;11.90;;;6.70;;
65871;SDS011;52653;50.080;21.992;2023-03-29T01:31:50;11.10;;;6.20;;
65871;SDS011;52653;50.080;21.992;2023-03-29T01:34:42;10.30;;;6.20;;
65871;SDS011;52653;50.080;21.992;2023-03-29T01:37:30;10.90;;;6.60;;
65871;SDS011;52653;50.080;21.992;2023-03-29T01:40:26;10.20;;;6.10;;
65871;SDS011;52653;50.080;21.992;2023-03-29T01:43:22;13.20;;;7.30;;
65871;SDS011;52653;50.080;21.992;2023-03-29T01:46:17;12.20;;;7.10;;
65871;SDS011;52653;50.080;21.992;2023-03-29T01:49:20;12.20;;;7.10;;
65871;SDS011;52653;50.080;21.992;2023-03-29T01:52:19;13.40;;;7.70;;
65871;SDS011;52653;50.080;21.992;2023-03-29T01:55:17;11.50;;;6.90;;
65871;SDS011;52653;50.080;21.992;2023-03-29T01:58:13;10.30;;;6.50;;
65871;SDS011;52653;50.080;21.992;2023-03-29T02:01:09;11.60;;;6.80;;
65871;SDS011;52653;50.080;21.992;2023-03-29T02:04:08;12.90;;;7.20;;
65871;SDS011;52653;50.080;21.992;2023-03-29T02:06:54;12.40;;;6.40;;
65871;SDS011;52653;50.080;21.992;2023-03-29T02:09:50;11.40;;;6.90;;
65871;SDS011;52653;50.080;21.992;2023-03-29T02:12:34;11.10;;;6.50;;
65871;SDS011;52653;50.080;21.992;2023-03-29T02:15:27;12.10;;;6.30;;
65871;SDS011;52653;50.080;21.992;2023-03-29T02:18:20;12.20;;;7.00;;
65871;SDS011;52653;50.080;21.992;2023-03-29T02:21:03;10.50;;;6.20;;
65871;SDS011;52653;50.080;21.992;2023-03-29T02:23:42;12.80;;;7.00;;
65871;SDS011;52653;50.080;21.992;2023-03-29T02:26:38;11.10;;;6.90;;
65871;SDS011;52653;50.080;21.992;2023-03-29T02:29:31;9.80;;;6.20;;
65871;SDS011;52653;50.080;21.992;2023-03-29T02:32:25;10.30;;;5.80;;
65871;SDS011;52653;50.080;21.992;2023-03-29T02:35:26;11.80;;;6.40;;
65871;SDS011;52653;50.080;21.992;2023-03-29T02:38:17;10.30;;;6.00;;
65871;SDS011;52653;50.080;21.992;2023-03-29T02:41:03;10.60;;;6.40;;
65871;SDS011;52653;50.080;21.992;2023-03-29T02:43:57;12.00;;;6.80;;
65871;SDS011;52653;50.080;21.992;2023-03-29T02:46:53;12.00;;;6.80;;
65871;SDS011;52653;50.080;21.992;2023-03-29T02:49:29;12.10;;;6.60;;
65871;SDS011;52653;50.080;21.992;2023-03-29T02:52:23;13.30;;;7.30;;
65871;SDS011;52653;50.080;21.992;2023-03-29T02:55:11;12.90;;;6.70;;
65871;SDS011;52653;50.080;21.992;2023-03-29T02:57:47;12.10;;;6.80;;
65871;SDS011;52653;50.080;21.992;2023-03-29T03:00:41;12.60;;;6.80;;
65871;SDS011;52653;50.080;21.992;2023-03-29T03:03:36;12.00;;;6.60;;
65871;SDS011;52653;50.080;21.992;2023-03-29T03:06:30;12.70;;;7.10;;
65871;SDS011;52653;50.080;21.992;2023-03-29T03:09:23;12.60;;;6.70;;
65871;SDS011;52653;50.080;21.992;2023-03-29T03:12:16;12.30;;;6.20;;
65871;SDS011;52653;50.080;21.992;2023-03-29T03:15:10;13.30;;;6.70;;
65871;SDS011;52653;50.080;21.992;2023-03-29T03:18:02;11.00;;;6.50;;
65871;SDS011;52653;50.080;21.992;2023-03-29T03:20:55;15.00;;;7.10;;
65871;SDS011;52653;50.080;21.992;2023-03-29T03:23:43;13.10;;;6.50;;
65871;SDS011;52653;50.080;21.992;2023-03-29T03:26:37;11.60;;;6.80;;
65871;SDS011;52653;50.080;21.992;2023-03-29T03:29:29;12.20;;;6.80;;
65871;SDS011;52653;50.080;21.992;2023-03-29T03:32:26;12.10;;;6.40;;
65871;SDS011;52653;50.080;21.992;2023-03-29T03:35:19;13.70;;;6.20;;
65871;SDS011;52653;50.080;21.992;2023-03-29T03:38:12;11.20;;;6.60;;
65871;SDS011;52653;50.080;21.992;2023-03-29T03:41:05;12.10;;;6.00;;
65871;SDS011;52653;50.080;21.992;2023-03-29T03:43:58;12.30;;;6.70;;
65871;SDS011;52653;50.080;21.992;2023-03-29T03:46:51;11.40;;;5.70;;
65871;SDS011;52653;50.080;21.992;2023-03-29T03:49:44;9.70;;;5.50;;
65871;SDS011;52653;50.080;21.992;2023-03-29T03:52:37;10.90;;;6.20;;
65871;SDS011;52653;50.080;21.992;2023-03-29T03:55:30;10.80;;;6.10;;
65871;SDS011;52653;50.080;21.992;2023-03-29T03:58:23;12.60;;;5.80;;
65871;SDS011;52653;50.080;21.992;2023-03-29T04:01:16;12.10;;;6.20;;
65871;SDS011;52653;50.080;21.992;2023-03-29T04:06:56;10.70;;;6.10;;
65871;SDS011;52653;50.080;21.992;2023-03-29T04:10:02;11.30;;;5.70;;
65871;SDS011;52653;50.080;21.992;2023-03-29T04:13:06;10.60;;;5.70;;
65871;SDS011;52653;50.080;21.992;2023-03-29T04:15:58;10.90;;;6.10;;
65871;SDS011;52653;50.080;21.992;2023-03-29T04:18:32;10.90;;;6.10;;
65871;SDS011;52653;50.080;21.992;2023-03-29T04:21:27;11.00;;;5.70;;
65871;SDS011;52653;50.080;21.992;2023-03-29T04:24:05;21.20;;;8.80;;
65871;SDS011;52653;50.080;21.992;2023-03-29T04:26:59;26.60;;;16.50;;
65871;SDS011;52653;50.080;21.992;2023-03-29T04:29:32;23.20;;;12.60;;
65871;SDS011;52653;50.080;21.992;2023-03-29T04:32:24;27.60;;;15.80;;
65871;SDS011;52653;50.080;21.992;2023-03-29T04:35:12;24.70;;;13.20;;
65871;SDS011;52653;50.080;21.992;2023-03-29T04:37:57;37.10;;;19.10;;
65871;SDS011;52653;50.080;21.992;2023-03-29T04:40:53;38.10;;;19.70;;
65871;SDS011;52653;50.080;21.992;2023-03-29T04:43:44;49.30;;;25.00;;
65871;SDS011;52653;50.080;21.992;2023-03-29T04:46:38;31.80;;;16.40;;
65871;SDS011;52653;50.080;21.992;2023-03-29T04:49:40;30.60;;;15.80;;
65871;SDS011;52653;50.080;21.992;2023-03-29T04:52:22;39.40;;;20.80;;
65871;SDS011;52653;50.080;21.992;2023-03-29T04:55:16;35.40;;;18.00;;
65871;SDS011;52653;50.080;21.992;2023-03-29T04:58:01;33.40;;;17.30;;
65871;SDS011;52653;50.080;21.992;2023-03-29T05:00:38;36.60;;;20.30;;
65871;SDS011;52653;50.080;21.992;2023-03-29T05:03:34;27.10;;;14.20;;
65871;SDS011;52653;50.080;21.992;2023-03-29T05:06:25;23.00;;;12.20;;
65871;SDS011;52653;50.080;21.992;2023-03-29T05:09:18;15.60;;;8.50;;
65871;SDS011;52653;50.080;21.992;2023-03-29T05:12:11;28.90;;;15.50;;
65871;SDS011;52653;50.080;21.992;2023-03-29T05:15:04;25.00;;;13.50;;
65871;SDS011;52653;50.080;21.992;2023-03-29T05:17:50;42.50;;;21.90;;
65871;SDS011;52653;50.080;21.992;2023-03-29T05:20:23;21.70;;;11.60;;
65871;SDS011;52653;50.080;21.992;2023-03-29T05:23:17;17.40;;;9.20;;
65871;SDS011;52653;50.080;21.992;2023-03-29T05:26:16;16.90;;;9.50;;
65871;SDS011;52653;50.080;21.992;2023-03-29T05:28:52;20.20;;;11.60;;
65871;SDS011;52653;50.080;21.992;2023-03-29T05:31:35;22.00;;;11.40;;
65871;SDS011;52653;50.080;21.992;2023-03-29T05:34:11;18.80;;;8.50;;
65871;SDS011;52653;50.080;21.992;2023-03-29T05:36:48;22.50;;;12.40;;
65871;SDS011;52653;50.080;21.992;2023-03-29T05:39:21;18.60;;;10.80;;
65871;SDS011;52653;50.080;21.992;2023-03-29T05:41:55;20.20;;;10.50;;
65871;SDS011;52653;50.080;21.992;2023-03-29T05:44:42;55.50;;;28.10;;
65871;SDS011;52653;50.080;21.992;2023-03-29T05:47:35;20.90;;;12.00;;
65871;SDS011;52653;50.080;21.992;2023-03-29T05:50:18;16.60;;;9.50;;
65871;SDS011;52653;50.080;21.992;2023-03-29T05:52:52;15.70;;;8.10;;
65871;SDS011;52653;50.080;21.992;2023-03-29T05:55:25;16.80;;;9.10;;
65871;SDS011;52653;50.080;21.992;2023-03-29T05:58:12;15.50;;;8.70;;
65871;SDS011;52653;50.080;21.992;2023-03-29T06:00:50;16.80;;;9.60;;
65871;SDS011;52653;50.080;21.992;2023-03-29T06:03:47;14.90;;;7.30;;
65871;SDS011;52653;50.080;21.992;2023-03-29T06:06:27;12.00;;;5.90;;
65871;SDS011;52653;50.080;21.992;2023-03-29T06:09:03;13.80;;;8.40;;
65871;SDS011;52653;50.080;21.992;2023-03-29T06:11:49;16.00;;;9.20;;
65871;SDS011;52653;50.080;21.992;2023-03-29T06:14:37;15.90;;;9.70;;
65871;SDS011;52653;50.080;21.992;2023-03-29T06:17:41;13.50;;;8.10;;
65871;SDS011;52653;50.080;21.992;2023-03-29T06:20:21;14.60;;;7.30;;
65871;SDS011;52653;50.080;21.992;2023-03-29T06:22:58;12.00;;;6.50;;
65871;SDS011;52653;50.080;21.992;2023-03-29T06:25:33;13.40;;;8.40;;
65871;SDS011;52653;50.080;21.992;2023-03-29T06:28:06;11.30;;;5.80;;
65871;SDS011;52653;50.080;21.992;2023-03-29T06:30:47;11.60;;;5.90;;
65871;SDS011;52653;50.080;21.992;2023-03-29T06:33:42;14.40;;;8.80;;
65871;SDS011;52653;50.080;21.992;2023-03-29T06:36:35;11.80;;;5.90;;
65871;SDS011;52653;50.080;21.992;2023-03-29T06:39:19;12.80;;;5.60;;
65871;SDS011;52653;50.080;21.992;2023-03-29T06:42:06;11.50;;;6.00;;
65871;SDS011;52653;50.080;21.992;2023-03-29T06:45:30;10.90;;;6.10;;
65871;SDS011;52653;50.080;21.992;2023-03-29T06:48:07;12.50;;;7.90;;
65871;SDS011;52653;50.080;21.992;2023-03-29T06:50:43;11.70;;;7.20;;
65871;SDS011;52653;50.080;21.992;2023-03-29T06:53:21;11.60;;;7.80;;
65871;SDS011;52653;50.080;21.992;2023-03-29T06:56:09;15.20;;;7.20;;
65871;SDS011;52653;50.080;21.992;2023-03-29T06:58:44;10.10;;;6.00;;
65871;SDS011;52653;50.080;21.992;2023-03-29T07:01:50;12.60;;;6.60;;
65871;SDS011;52653;50.080;21.992;2023-03-29T07:04:44;10.50;;;5.40;;
65871;SDS011;52653;50.080;21.992;2023-03-29T07:07:32;13.30;;;7.50;;
65871;SDS011;52653;50.080;21.992;2023-03-29T07:10:43;13.40;;;7.00;;
65871;SDS011;52653;50.080;21.992;2023-03-29T07:13:49;13.40;;;7.50;;
65871;SDS011;52653;50.080;21.992;2023-03-29T07:16:42;11.70;;;6.00;;
65871;SDS011;52653;50.080;21.992;2023-03-29T07:19:35;13.10;;;4.60;;
65871;SDS011;52653;50.080;21.992;2023-03-29T07:22:31;13.70;;;6.30;;
65871;SDS011;52653;50.080;21.992;2023-03-29T07:25:24;10.90;;;5.60;;
65871;SDS011;52653;50.080;21.992;2023-03-29T07:28:09;7.90;;;4.00;;
65871;SDS011;52653;50.080;21.992;2023-03-29T07:31:03;11.80;;;5.30;;
65871;SDS011;52653;50.080;21.992;2023-03-29T07:33:59;8.60;;;3.80;;
65871;SDS011;52653;50.080;21.992;2023-03-29T07:36:55;11.80;;;5.60;;
65871;SDS011;52653;50.080;21.992;2023-03-29T07:39:48;9.20;;;4.80;;
65871;SDS011;52653;50.080;21.992;2023-03-29T07:42:50;8.30;;;3.90;;
65871;SDS011;52653;50.080;21.992;2023-03-29T07:45:45;17.20;;;7.60;;
65871;SDS011;52653;50.080;21.992;2023-03-29T07:48:38;10.80;;;5.50;;
65871;SDS011;52653;50.080;21.992;2023-03-29T07:51:31;16.30;;;7.90;;
65871;SDS011;52653;50.080;21.992;2023-03-29T07:54:21;10.50;;;6.00;;
65871;SDS011;52653;50.080;21.992;2023-03-29T07:57:17;7.90;;;3.80;;
65871;SDS011;52653;50.080;21.992;2023-03-29T08:00:11;9.80;;;4.70;;
65871;SDS011;52653;50.080;21.992;2023-03-29T08:03:07;7.00;;;3.10;;
65871;SDS011;52653;50.080;21.992;2023-03-29T08:06:02;8.20;;;4.20;;
65871;SDS011;52653;50.080;21.992;2023-03-29T08:08:51;9.40;;;3.90;;
65871;SDS011;52653;50.080;21.992;2023-03-29T08:11:47;6.40;;;3.10;;
65871;SDS011;52653;50.080;21.992;2023-03-29T08:14:42;10.30;;;4.10;;
65871;SDS011;52653;50.080;21.992;2023-03-29T08:17:35;5.10;;;2.30;;
65871;SDS011;52653;50.080;21.992;2023-03-29T08:20:23;4.80;;;2.00;;
65871;SDS011;52653;50.080;21.992;2023-03-29T08:23:16;5.10;;;2.30;;
65871;SDS011;52653;50.080;21.992;2023-03-29T08:26:28;7.50;;;2.90;;
65871;SDS011;52653;50.080;21.992;2023-03-29T08:29:22;5.80;;;2.70;;
65871;SDS011;52653;50.080;21.992;2023-03-29T08:32:06;7.90;;;3.20;;
65871;SDS011;52653;50.080;21.992;2023-03-29T08:35:00;5.50;;;2.40;;
65871;SDS011;52653;50.080;21.992;2023-03-29T08:37:59;4.60;;;2.10;;
65871;SDS011;52653;50.080;21.992;2023-03-29T08:40:45;4.90;;;2.00;;
65871;SDS011;52653;50.080;21.992;2023-03-29T08:46:39;6.20;;;2.40;;
65871;SDS011;52653;50.080;21.992;2023-03-29T08:49:49;6.30;;;2.40;;
65871;SDS011;52653;50.080;21.992;2023-03-29T08:52:47;8.00;;;3.10;;
65871;SDS011;52653;50.080;21.992;2023-03-29T08:55:46;7.60;;;2.50;;
65871;SDS011;52653;50.080;21.992;2023-03-29T08:58:57;5.90;;;2.00;;
65871;SDS011;52653;50.080;21.992;2023-03-29T09:01:51;4.80;;;2.10;;
65871;SDS011;52653;50.080;21.992;2023-03-29T09:04:47;5.60;;;2.40;;
65871;SDS011;52653;50.080;21.992;2023-03-29T09:07:44;4.70;;;2.00;;
65871;SDS011;52653;50.080;21.992;2023-03-29T09:10:38;4.60;;;1.90;;
65871;SDS011;52653;50.080;21.992;2023-03-29T09:13:31;5.40;;;2.10;;
65871;SDS011;52653;50.080;21.992;2023-03-29T09:16:31;5.60;;;2.30;;
65871;SDS011;52653;50.080;21.992;2023-03-29T09:19:24;5.20;;;2.10;;
65871;SDS011;52653;50.080;21.992;2023-03-29T09:22:20;4.80;;;2.30;;
65871;SDS011;52653;50.080;21.992;2023-03-29T09:25:18;5.70;;;2.10;;
65871;SDS011;52653;50.080;21.992;2023-03-29T09:31:04;4.80;;;1.70;;
65871;SDS011;52653;50.080;21.992;2023-03-29T09:34:02;4.80;;;2.20;;
65871;SDS011;52653;50.080;21.992;2023-03-29T09:37:10;5.20;;;2.20;;
65871;SDS011;52653;50.080;21.992;2023-03-29T09:40:26;3.70;;;2.20;;
65871;SDS011;52653;50.080;21.992;2023-03-29T09:43:27;4.80;;;2.10;;
65871;SDS011;52653;50.080;21.992;2023-03-29T09:46:23;5.10;;;2.20;;
65871;SDS011;52653;50.080;21.992;2023-03-29T09:49:21;4.80;;;2.10;;
65871;SDS011;52653;50.080;21.992;2023-03-29T09:52:00;6.10;;;2.30;;
65871;SDS011;52653;50.080;21.992;2023-03-29T09:54:48;4.10;;;1.80;;
65871;SDS011;52653;50.080;21.992;2023-03-29T09:57:42;5.30;;;2.20;;
65871;SDS011;52653;50.080;21.992;2023-03-29T10:00:35;5.90;;;1.80;;
65871;SDS011;52653;50.080;21.992;2023-03-29T10:03:28;4.10;;;1.70;;
65871;SDS011;52653;50.080;21.992;2023-03-29T10:06:14;4.10;;;1.80;;
65871;SDS011;52653;50.080;21.992;2023-03-29T10:09:10;4.70;;;1.80;;
65871;SDS011;52653;50.080;21.992;2023-03-29T10:12:07;4.40;;;1.80;;
65871;SDS011;52653;50.080;21.992;2023-03-29T10:14:52;7.00;;;2.40;;
65871;SDS011;52653;50.080;21.992;2023-03-29T10:17:27;4.40;;;1.90;;
65871;SDS011;52653;50.080;21.992;2023-03-29T10:20:11;5.90;;;2.70;;
65871;SDS011;52653;50.080;21.992;2023-03-29T10:22:57;5.00;;;2.20;;
65871;SDS011;52653;50.080;21.992;2023-03-29T10:25:51;4.70;;;2.60;;
65871;SDS011;52653;50.080;21.992;2023-03-29T10:28:44;8.80;;;3.70;;
65871;SDS011;52653;50.080;21.992;2023-03-29T10:31:38;7.20;;;3.00;;
65871;SDS011;52653;50.080;21.992;2023-03-29T10:34:21;7.20;;;3.40;;
65871;SDS011;52653;50.080;21.992;2023-03-29T10:37:17;8.90;;;3.70;;
65871;SDS011;52653;50.080;21.992;2023-03-29T10:39:55;7.00;;;3.60;;
65871;SDS011;52653;50.080;21.992;2023-03-29T10:42:27;7.60;;;3.00;;
65871;SDS011;52653;50.080;21.992;2023-03-29T10:45:18;7.30;;;3.10;;
65871;SDS011;52653;50.080;21.992;2023-03-29T10:47:55;8.20;;;3.80;;
65871;SDS011;52653;50.080;21.992;2023-03-29T10:50:32;6.00;;;3.10;;
65871;SDS011;52653;50.080;21.992;2023-03-29T10:53:22;6.90;;;3.40;;
65871;SDS011;52653;50.080;21.992;2023-03-29T10:55:59;6.60;;;3.50;;
65871;SDS011;52653;50.080;21.992;2023-03-29T10:58:50;10.30;;;3.40;;
65871;SDS011;52653;50.080;21.992;2023-03-29T11:01:40;8.00;;;3.60;;
65871;SDS011;52653;50.080;21.992;2023-03-29T11:04:41;6.40;;;3.00;;
65871;SDS011;52653;50.080;21.992;2023-03-29T11:07:21;9.00;;;3.80;;
65871;SDS011;52653;50.080;21.992;2023-03-29T11:10:15;8.30;;;4.30;;
65871;SDS011;52653;50.080;21.992;2023-03-29T11:13:22;7.30;;;3.70;;
65871;SDS011;52653;50.080;21.992;2023-03-29T11:16:06;8.20;;;4.50;;
65871;SDS011;52653;50.080;21.992;2023-03-29T11:19:02;5.70;;;2.60;;
65871;SDS011;52653;50.080;21.992;2023-03-29T11:21:53;8.40;;;3.70;;
65871;SDS011;52653;50.080;21.992;2023-03-29T11:24:37;7.80;;;3.40;;
65871;SDS011;52653;50.080;21.992;2023-03-29T11:27:21;5.80;;;2.90;;
65871;SDS011;52653;50.080;21.992;2023-03-29T11:30:09;6.00;;;3.20;;
65871;SDS011;52653;50.080;21.992;2023-03-29T11:32:49;8.40;;;4.10;;
65871;SDS011;52653;50.080;21.992;2023-03-29T11:35:53;7.80;;;4.00;;
65871;SDS011;52653;50.080;21.992;2023-03-29T11:38:46;10.10;;;4.00;;
65871;SDS011;52653;50.080;21.992;2023-03-29T11:41:40;8.40;;;3.90;;
65871;SDS011;52653;50.080;21.992;2023-03-29T11:44:29;7.80;;;3.70;;
65871;SDS011;52653;50.080;21.992;2023-03-29T11:47:25;6.80;;;3.20;;
65871;SDS011;52653;50.080;21.992;2023-03-29T11:50:08;6.90;;;3.60;;
65871;SDS011;52653;50.080;21.992;2023-03-29T11:52:53;6.90;;;3.40;;
65871;SDS011;52653;50.080;21.992;2023-03-29T11:55:33;7.40;;;3.20;;
65871;SDS011;52653;50.080;21.992;2023-03-29T11:58:21;6.90;;;3.20;;
65871;SDS011;52653;50.080;21.992;2023-03-29T12:01:02;8.50;;;4.30;;
65871;SDS011;52653;50.080;21.992;2023-03-29T12:03:41;8.00;;;4.20;;
65871;SDS011;52653;50.080;21.992;2023-03-29T12:06:22;9.80;;;4.30;;
65871;SDS011;52653;50.080;21.992;2023-03-29T12:09:01;9.30;;;5.40;;
65871;SDS011;52653;50.080;21.992;2023-03-29T12:11:44;7.40;;;3.80;;
65871;SDS011;52653;50.080;21.992;2023-03-29T12:14:45;7.30;;;3.40;;
65871;SDS011;52653;50.080;21.992;2023-03-29T12:17:48;7.70;;;3.90;;
65871;SDS011;52653;50.080;21.992;2023-03-29T12:20:32;8.00;;;3.80;;
65871;SDS011;52653;50.080;21.992;2023-03-29T12:23:29;7.10;;;3.70;;
65871;SDS011;52653;50.080;21.992;2023-03-29T12:26:28;12.50;;;5.80;;
65871;SDS011;52653;50.080;21.992;2023-03-29T12:29:39;9.50;;;4.10;;
65871;SDS011;52653;50.080;21.992;2023-03-29T12:32:34;7.30;;;3.70;;
65871;SDS011;52653;50.080;21.992;2023-03-29T12:35:40;10.40;;;6.20;;
65871;SDS011;52653;50.080;21.992;2023-03-29T12:38:42;8.50;;;5.30;;
65871;SDS011;52653;50.080;21.992;2023-03-29T12:41:36;7.10;;;3.70;;
65871;SDS011;52653;50.080;21.992;2023-03-29T12:44:49;10.80;;;5.00;;
65871;SDS011;52653;50.080;21.992;2023-03-29T12:47:47;21.50;;;9.80;;
65871;SDS011;52653;50.080;21.992;2023-03-29T12:50:26;8.20;;;4.50;;
65871;SDS011;52653;50.080;21.992;2023-03-29T12:53:14;12.80;;;6.00;;
65871;SDS011;52653;50.080;21.992;2023-03-29T12:56:10;9.40;;;5.30;;
65871;SDS011;52653;50.080;21.992;2023-03-29T12:59:03;9.40;;;5.20;;
65871;SDS011;52653;50.080;21.992;2023-03-29T13:01:57;10.20;;;5.60;;
65871;SDS011;52653;50.080;21.992;2023-03-29T13:04:47;11.10;;;6.40;;
65871;SDS011;52653;50.080;21.992;2023-03-29T13:07:30;10.00;;;5.80;;
65871;SDS011;52653;50.080;21.992;2023-03-29T13:10:32;9.60;;;5.60;;
65871;SDS011;52653;50.080;21.992;2023-03-29T13:13:09;11.30;;;5.30;;
65871;SDS011;52653;50.080;21.992;2023-03-29T13:15:55;8.60;;;4.90;;
65871;SDS011;52653;50.080;21.992;2023-03-29T13:18:59;10.20;;;5.80;;
65871;SDS011;52653;50.080;21.992;2023-03-29T13:21:47;9.50;;;5.20;;
65871;SDS011;52653;50.080;21.992;2023-03-29T13:24:49;10.50;;;5.80;;
65871;SDS011;52653;50.080;21.992;2023-03-29T13:27:56;9.70;;;5.60;;
65871;SDS011;52653;50.080;21.992;2023-03-29T13:30:41;10.90;;;5.30;;
65871;SDS011;52653;50.080;21.992;2023-03-29T13:33:46;10.20;;;5.40;;
65871;SDS011;52653;50.080;21.992;2023-03-29T13:36:42;8.30;;;5.30;;
65871;SDS011;52653;50.080;21.992;2023-03-29T13:39:33;10.00;;;5.50;;
65871;SDS011;52653;50.080;21.992;2023-03-29T13:42:19;10.90;;;5.30;;
65871;SDS011;52653;50.080;21.992;2023-03-29T13:45:24;10.10;;;5.30;;
65871;SDS011;52653;50.080;21.992;2023-03-29T13:48:01;10.60;;;5.80;;
65871;SDS011;52653;50.080;21.992;2023-03-29T13:51:20;8.90;;;5.20;;
65871;SDS011;52653;50.080;21.992;2023-03-29T13:54:23;8.90;;;5.00;;
65871;SDS011;52653;50.080;21.992;2023-03-29T13:57:02;9.60;;;4.80;;
65871;SDS011;52653;50.080;21.992;2023-03-29T13:59:43;9.00;;;5.20;;
65871;SDS011;52653;50.080;21.992;2023-03-29T14:02:26;9.10;;;5.40;;
65871;SDS011;52653;50.080;21.992;2023-03-29T14:05:08;8.80;;;4.60;;
65871;SDS011;52653;50.080;21.992;2023-03-29T14:07:58;7.50;;;3.90;;
65871;SDS011;52653;50.080;21.992;2023-03-29T14:10:38;7.50;;;3.80;;
65871;SDS011;52653;50.080;21.992;2023-03-29T14:13:18;7.80;;;4.20;;
65871;SDS011;52653;50.080;21.992;2023-03-29T14:16:06;8.60;;;5.30;;
65871;SDS011;52653;50.080;21.992;2023-03-29T14:18:43;6.90;;;4.10;;
65871;SDS011;52653;50.080;21.992;2023-03-29T14:21:22;7.10;;;4.40;;
65871;SDS011;52653;50.080;21.992;2023-03-29T14:23:56;7.70;;;4.50;;
65871;SDS011;52653;50.080;21.992;2023-03-29T14:26:31;7.90;;;4.20;;
65871;SDS011;52653;50.080;21.992;2023-03-29T14:29:17;8.20;;;4.20;;
65871;SDS011;52653;50.080;21.992;2023-03-29T14:32:14;8.00;;;4.30;;
65871;SDS011;52653;50.080;21.992;2023-03-29T14:35:10;7.50;;;3.70;;
65871;SDS011;52653;50.080;21.992;2023-03-29T14:37:46;7.10;;;4.00;;
65871;SDS011;52653;50.080;21.992;2023-03-29T14:40:22;7.70;;;4.70;;
65871;SDS011;52653;50.080;21.992;2023-03-29T14:42:56;9.70;;;4.90;;
65871;SDS011;52653;50.080;21.992;2023-03-29T14:45:34;7.90;;;4.70;;
65871;SDS011;52653;50.080;21.992;2023-03-29T14:48:10;8.00;;;4.50;;
65871;SDS011;52653;50.080;21.992;2023-03-29T14:50:44;7.70;;;4.80;;
65871;SDS011;52653;50.080;21.992;2023-03-29T14:53:21;9.30;;;5.10;;
65871;SDS011;52653;50.080;21.992;2023-03-29T14:56:07;9.80;;;5.40;;
65871;SDS011;52653;50.080;21.992;2023-03-29T14:59:04;10.70;;;5.60;;
65871;SDS011;52653;50.080;21.992;2023-03-29T15:02:26;10.50;;;4.90;;
65871;SDS011;52653;50.080;21.992;2023-03-29T15:05:04;6.70;;;4.00;;
65871;SDS011;52653;50.080;21.992;2023-03-29T15:08:01;9.40;;;4.60;;
65871;SDS011;52653;50.080;21.992;2023-03-29T15:10:57;7.40;;;3.50;;
65871;SDS011;52653;50.080;21.992;2023-03-29T15:13:42;7.60;;;3.50;;
65871;SDS011;52653;50.080;21.992;2023-03-29T15:16:30;7.10;;;4.10;;
65871;SDS011;52653;50.080;21.992;2023-03-29T15:19:23;6.00;;;3.60;;
65871;SDS011;52653;50.080;21.992;2023-03-29T15:22:08;8.30;;;4.20;;
65871;SDS011;52653;50.080;21.992;2023-03-29T15:24:48;9.60;;;4.70;;
65871;SDS011;52653;50.080;21.992;2023-03-29T15:27:41;7.60;;;4.30;;
65871;SDS011;52653;50.080;21.992;2023-03-29T15:30:35;7.00;;;4.00;;
65871;SDS011;52653;50.080;21.992;2023-03-29T15:33:22;8.70;;;4.60;;
65871;SDS011;52653;50.080;21.992;2023-03-29T15:36:05;6.80;;;4.20;;
65871;SDS011;52653;50.080;21.992;2023-03-29T15:39:05;8.90;;;4.90;;
65871;SDS011;52653;50.080;21.992;2023-03-29T15:41:44;8.10;;;4.20;;
65871;SDS011;52653;50.080;21.992;2023-03-29T15:44:37;7.20;;;4.00;;
65871;SDS011;52653;50.080;21.992;2023-03-29T15:47:26;6.10;;;3.70;;
65871;SDS011;52653;50.080;21.992;2023-03-29T15:50:19;8.20;;;5.00;;
65871;SDS011;52653;50.080;21.992;2023-03-29T15:53:12;12.90;;;5.80;;
65871;SDS011;52653;50.080;21.992;2023-03-29T15:55:51;10.00;;;5.70;;
65871;SDS011;52653;50.080;21.992;2023-03-29T15:58:39;9.40;;;4.80;;
65871;SDS011;52653;50.080;21.992;2023-03-29T16:01:18;9.90;;;5.50;;
65871;SDS011;52653;50.080;21.992;2023-03-29T16:04:15;8.40;;;4.90;;
65871;SDS011;52653;50.080;21.992;2023-03-29T16:06:51;7.90;;;4.70;;
65871;SDS011;52653;50.080;21.992;2023-03-29T16:09:47;12.30;;;6.80;;
65871;SDS011;52653;50.080;21.992;2023-03-29T16:12:30;22.20;;;12.60;;
65871;SDS011;52653;50.080;21.992;2023-03-29T16:15:17;18.20;;;10.60;;
65871;SDS011;52653;50.080;21.992;2023-03-29T16:17:57;19.70;;;13.40;;
65871;SDS011;52653;50.080;21.992;2023-03-29T16:20:50;19.50;;;10.40;;
65871;SDS011;52653;50.080;21.992;2023-03-29T16:23:43;14.20;;;8.40;;
65871;SDS011;52653;50.080;21.992;2023-03-29T16:26:38;13.70;;;8.20;;
65871;SDS011;52653;50.080;21.992;2023-03-29T16:29:31;17.40;;;9.80;;
65871;SDS011;52653;50.080;21.992;2023-03-29T16:32:16;23.90;;;13.30;;
65871;SDS011;52653;50.080;21.992;2023-03-29T16:35:11;20.90;;;11.90;;
65871;SDS011;52653;50.080;21.992;2023-03-29T16:37:58;22.00;;;11.70;;
65871;SDS011;52653;50.080;21.992;2023-03-29T16:40:52;18.80;;;10.80;;
65871;SDS011;52653;50.080;21.992;2023-03-29T16:43:34;22.60;;;12.00;;
65871;SDS011;52653;50.080;21.992;2023-03-29T16:46:27;24.10;;;13.60;;
65871;SDS011;52653;50.080;21.992;2023-03-29T16:49:20;21.30;;;12.10;;